Time;durP1;ratioP1;P1;durP2;ratioP2;P2;SDS_P1;SDS_P2;PMS_P1;PMS_P2;Temp;Humidity;BMP_temperature;BMP_pressure;BME280_temperature;BME280_humidity;BME280_pressure;Samples;Min_cycle;Max_cycle;Signal;HPM_P1;HPM_P2
2021/06/08 00:00:05;;;;;;;6.40;4.57;;;;;;;19.00;41.89;101874.38;3619801;39;20168;-77
2021/06/08 00:02:39;;;;;;;6.07;4.68;;;;;;;18.99;41.82;101873.53;3609397;39;20500;-77
2021/06/08 00:05:08;;;;;;;6.28;4.47;;;;;;;19.00;41.74;101872.50;3600153;39;20034;-77
2021/06/08 00:07:36;;;;;;;6.20;5.00;;;;;;;19.01;41.88;101876.13;3600155;39;20117;-78
2021/06/08 00:10:05;;;;;;;6.70;4.78;;;;;;;19.02;42.22;101864.84;3608568;39;20048;-78
2021/06/08 00:12:33;;;;;;;6.35;4.78;;;;;;;19.01;42.24;101865.91;3615039;39;20023;-78
2021/06/08 00:15:04;;;;;;;6.63;4.88;;;;;;;19.05;42.38;101860.88;3610926;39;20051;-78
2021/06/08 00:17:32;;;;;;;5.82;4.72;;;;;;;19.02;42.40;101861.25;3610292;39;20116;-79
2021/06/08 00:20:01;;;;;;;6.65;5.07;;;;;;;19.02;42.40;101864.00;3610079;39;20082;-78
2021/06/08 00:22:30;;;;;;;6.75;5.07;;;;;;;19.02;42.06;101858.47;3620460;39;20031;-78
2021/06/08 00:25:00;;;;;;;6.35;4.78;;;;;;;19.02;41.98;101858.47;3622555;39;20043;-78
2021/06/08 00:27:28;;;;;;;7.55;5.70;;;;;;;19.02;42.13;101873.16;3631243;39;20050;-78
2021/06/08 00:29:56;;;;;;;6.13;4.97;;;;;;;19.02;41.95;101873.16;3613569;39;20031;-78
2021/06/08 00:32:25;;;;;;;6.65;5.05;;;;;;;19.04;41.96;101861.91;3631243;39;20104;-78
2021/06/08 00:34:53;;;;;;;6.10;5.22;;;;;;;19.01;42.40;101860.38;3621952;39;20110;-78
2021/06/08 00:37:22;;;;;;;6.65;5.25;;;;;;;19.02;41.98;101866.78;3631126;39;20034;-78
2021/06/08 00:39:49;;;;;;;7.45;5.15;;;;;;;19.01;42.44;101871.47;3631132;39;20022;-77
2021/06/08 00:42:26;;;;;;;9.20;6.32;;;;;;;19.03;42.29;101871.28;3621870;39;20042;-78
2021/06/08 00:44:54;;;;;;;7.68;5.93;;;;;;;18.97;41.99;101867.25;3631446;39;20103;-78
2021/06/08 00:47:23;;;;;;;7.32;5.50;;;;;;;18.96;42.13;101861.88;3621838;39;20032;-78
2021/06/08 00:49:52;;;;;;;7.47;5.97;;;;;;;18.97;42.25;101867.25;3631173;39;20479;-78
2021/06/08 00:52:20;;;;;;;7.10;5.80;;;;;;;18.94;42.23;101866.69;3613299;39;20071;-78
2021/06/08 00:54:48;;;;;;;7.00;6.00;;;;;;;18.92;42.67;101857.69;3602195;39;20115;-78
2021/06/08 00:57:16;;;;;;;7.38;5.90;;;;;;;18.92;42.43;101860.47;3629136;39;20265;-78
2021/06/08 00:59:44;;;;;;;6.95;5.68;;;;;;;18.91;42.66;101859.59;3611592;39;20072;-78
2021/06/08 01:02:12;;;;;;;7.07;5.60;;;;;;;18.91;42.59;101858.72;3620935;39;20039;-78
2021/06/08 01:04:39;;;;;;;6.88;5.85;;;;;;;18.90;42.60;101860.63;3621045;39;20051;-78
2021/06/08 01:07:09;;;;;;;6.78;5.38;;;;;;;18.92;42.75;101854.94;3620743;39;20059;-79
2021/06/08 01:09:36;;;;;;;7.13;5.63;;;;;;;18.90;42.70;101860.63;3602949;39;20044;-78
2021/06/08 01:12:05;;;;;;;6.50;5.43;;;;;;;18.90;42.22;101855.09;3620718;39;20031;-79
2021/06/08 01:14:32;;;;;;;7.82;5.05;;;;;;;18.90;42.17;101851.44;3620723;39;20058;-78
2021/06/08 01:17:01;;;;;;;7.13;5.75;;;;;;;18.90;42.72;101855.09;3602702;39;20050;-79
2021/06/08 01:19:29;;;;;;;6.88;5.45;;;;;;;18.92;42.84;101854.94;3610811;39;20066;-78
2021/06/08 01:21:58;;;;;;;7.40;5.15;;;;;;;18.92;42.23;101850.25;3610987;39;20123;-78
2021/06/08 01:24:26;;;;;;;6.78;5.45;;;;;;;18.90;42.61;101852.31;3619231;39;20043;-78
2021/06/08 01:26:54;;;;;;;7.25;5.13;;;;;;;18.90;42.50;101857.84;3612398;39;20574;-78
2021/06/08 01:29:25;;;;;;;7.13;5.40;;;;;;;18.91;42.79;101862.38;3610956;39;20043;-78
2021/06/08 01:31:57;;;;;;;6.45;5.53;;;;;;;18.91;42.77;101862.38;3610989;39;20033;-81
2021/06/08 01:34:26;;;;;;;7.75;5.63;;;;;;;18.90;42.67;101862.53;3620580;39;20063;-78
2021/06/08 01:36:56;;;;;;;8.23;5.25;;;;;;;18.89;42.65;101867.19;3611058;39;20307;-78
2021/06/08 01:39:26;;;;;;;6.82;5.85;;;;;;;18.91;42.85;101867.91;3620495;39;20039;-78
2021/06/08 01:41:55;;;;;;;6.82;5.43;;;;;;;18.89;42.61;101863.56;3620650;39;20322;-78
2021/06/08 01:44:24;;;;;;;6.78;6.00;;;;;;;18.88;42.23;101870.13;3610673;39;20049;-78
2021/06/08 01:46:51;;;;;;;7.07;5.93;;;;;;;18.87;42.67;101865.63;3620424;39;20376;-78
2021/06/08 01:49:19;;;;;;;7.28;5.35;;;;;;;18.85;42.85;101864.94;3620572;39;20027;-78
2021/06/08 01:51:55;;;;;;;6.85;5.55;;;;;;;18.85;42.21;101874.13;3620934;39;20743;-78
2021/06/08 01:54:32;;;;;;;7.03;4.90;;;;;;;18.86;42.71;101870.28;3602099;39;20046;-78
2021/06/08 01:57:07;;;;;;;6.97;5.57;;;;;;;18.84;42.79;101863.19;3620235;39;20148;-78
2021/06/08 01:59:49;;;;;;;6.78;4.88;;;;;;;18.84;42.16;101864.06;3620351;39;20046;-78
2021/06/08 02:02:22;;;;;;;7.55;5.15;;;;;;;18.79;42.84;101864.53;3620604;39;20051;-78
2021/06/08 02:05:00;;;;;;;6.72;5.22;;;;;;;18.80;42.14;101857.97;3619576;39;20484;-78
2021/06/08 02:07:35;;;;;;;6.90;5.00;;;;;;;18.79;42.35;101858.97;3620013;39;20043;-79
2021/06/08 02:10:23;;;;;;;6.47;5.05;;;;;;;18.80;42.52;101860.72;3610885;39;20043;-79
2021/06/08 02:12:59;;;;;;;6.07;5.05;;;;;;;18.78;42.60;101859.09;3620535;39;20039;-78
2021/06/08 02:15:33;;;;;;;6.93;5.18;;;;;;;18.75;42.00;101857.56;3620466;39;20404;-78
2021/06/08 02:18:01;;;;;;;8.00;5.07;;;;;;;18.74;42.41;101866.03;3620418;39;20031;-78
2021/06/08 02:20:33;;;;;;;6.30;4.72;;;;;;;18.73;42.01;101867.06;3620310;39;20078;-78
2021/06/08 02:23:04;;;;;;;5.93;4.65;;;;;;;18.69;42.53;101866.50;3622165;39;20054;-78
2021/06/08 02:25:37;;;;;;;6.75;5.18;;;;;;;18.70;41.96;101859.03;3610584;39;20624;-79
2021/06/08 02:28:12;;;;;;;6.88;5.28;;;;;;;18.67;42.46;101859.38;3611589;39;20038;-78
2021/06/08 02:30:43;;;;;;;6.20;4.93;;;;;;;18.65;42.30;101869.75;3601120;39;20043;-78
2021/06/08 02:33:12;;;;;;;6.78;5.60;;;;;;;18.61;42.50;101865.56;3611483;39;20089;-79
2021/06/08 02:35:40;;;;;;;7.18;5.20;;;;;;;18.60;42.41;101864.72;3611631;39;20063;-79
2021/06/08 02:38:09;;;;;;;6.72;5.05;;;;;;;18.57;42.25;101867.78;3603735;39;20372;-78
2021/06/08 02:40:39;;;;;;;6.60;4.80;;;;;;;18.56;42.71;101871.59;3611997;39;20061;-80
2021/06/08 02:43:08;;;;;;;7.03;5.40;;;;;;;18.55;42.46;101863.44;3611018;39;20044;-79
2021/06/08 02:45:36;;;;;;;7.70;4.82;;;;;;;18.51;42.43;101868.44;3607527;39;20058;-79
2021/06/08 02:48:05;;;;;;;7.18;5.30;;;;;;;18.49;42.13;101873.25;3610805;39;20053;-78
2021/06/08 02:50:34;;;;;;;6.63;5.40;;;;;;;18.47;42.18;101867.00;3608417;39;20429;-78
2021/06/08 02:53:02;;;;;;;7.00;5.55;;;;;;;18.45;42.57;101869.94;3618051;39;20039;-78
2021/06/08 02:55:31;;;;;;;6.35;5.05;;;;;;;18.43;42.47;101868.38;3613551;39;20043;-80
2021/06/08 02:58:02;;;;;;;6.72;5.28;;;;;;;18.42;42.48;101870.28;3621775;39;20039;-80
2021/06/08 03:00:31;;;;;;;6.68;5.10;;;;;;;18.38;42.54;101867.97;3600011;39;20032;-79
2021/06/08 03:03:03;;;;;;;6.63;5.35;;;;;;;18.39;42.37;101867.81;3605476;39;20047;-78
2021/06/08 03:05:35;;;;;;;6.47;5.03;;;;;;;18.36;42.37;101870.03;3621802;39;20038;-81
2021/06/08 03:08:06;;;;;;;6.10;5.13;;;;;;;18.32;42.26;101865.84;3611821;39;20100;-77
2021/06/08 03:10:36;;;;;;;6.68;4.78;;;;;;;18.30;42.45;101860.44;3620723;39;20043;-79
2021/06/08 03:13:07;;;;;;;6.35;4.97;;;;;;;18.30;42.53;101870.66;3610681;39;20422;-78
2021/06/08 03:15:39;;;;;;;6.30;5.15;;;;;;;18.28;42.41;101875.47;3600499;39;20087;-78
2021/06/08 03:18:09;;;;;;;6.97;4.97;;;;;;;18.26;42.57;101877.56;3611295;39;20038;-79
2021/06/08 03:20:41;;;;;;;7.28;5.10;;;;;;;18.23;42.20;101870.44;3620254;39;20277;-80
2021/06/08 03:23:12;;;;;;;7.18;5.10;;;;;;;18.19;42.15;101882.00;3610891;39;20112;-78
2021/06/08 03:25:41;;;;;;;6.82;5.30;;;;;;;18.18;42.23;101881.13;3609238;39;20031;-78
2021/06/08 03:28:12;;;;;;;6.70;5.13;;;;;;;18.17;42.58;101876.59;3619911;39;20038;-79
2021/06/08 03:30:40;;;;;;;6.22;4.97;;;;;;;18.13;41.95;101883.47;3611206;39;20027;-79
2021/06/08 03:33:08;;;;;;;7.93;5.57;;;;;;;18.12;42.50;101880.84;3620160;39;20310;-79
2021/06/08 03:35:36;;;;;;;6.95;5.28;;;;;;;18.09;42.51;101879.28;3610773;39;20034;-79
2021/06/08 03:38:09;;;;;;;6.35;5.25;;;;;;;18.10;42.75;101881.03;3609955;39;20039;-78
2021/06/08 03:40:37;;;;;;;6.50;5.13;;;;;;;18.03;42.28;101875.19;3619811;39;20080;-78
2021/06/08 03:43:05;;;;;;;6.78;5.13;;;;;;;18.03;42.38;101879.88;3611007;39;20035;-78
2021/06/08 03:45:35;;;;;;;6.25;4.78;;;;;;;18.02;42.45;101876.25;3616884;39;20120;-78
2021/06/08 03:48:03;;;;;;;7.07;5.05;;;;;;;17.99;42.12;101878.44;3619522;39;20085;-78
2021/06/08 03:50:32;;;;;;;6.35;4.70;;;;;;;17.98;42.56;101879.47;3610540;39;20123;-78
2021/06/08 03:53:02;;;;;;;6.43;4.93;;;;;;;17.97;42.26;101875.81;3619531;39;20034;-79
2021/06/08 03:55:30;;;;;;;6.07;4.65;;;;;;;17.95;42.28;101877.88;3620626;39;20027;-78
2021/06/08 03:58:06;;;;;;;7.10;4.95;;;;;;;17.95;42.74;101888.06;3611718;39;20051;-78
2021/06/08 04:00:36;;;;;;;7.82;4.93;;;;;;;17.94;42.23;101878.06;3628984;39;20561;-78
2021/06/08 04:03:04;;;;;;;6.65;4.90;;;;;;;17.91;42.75;101882.00;3625248;39;20027;-78
2021/06/08 04:05:32;;;;;;;6.40;5.05;;;;;;;17.90;43.01;101883.03;3621517;39;20047;-78
2021/06/08 04:08:00;;;;;;;8.52;5.03;;;;;;;17.88;42.48;101879.53;3621661;39;20277;-80
2021/06/08 04:10:29;;;;;;;7.10;5.28;;;;;;;17.88;42.49;101885.06;3621622;39;20039;-78
2021/06/08 04:12:59;;;;;;;8.55;5.55;;;;;;;17.89;42.46;101880.41;3621229;39;20024;-78
2021/06/08 04:15:28;;;;;;;6.97;5.35;;;;;;;17.86;42.94;101886.28;3621275;39;20464;-79
2021/06/08 04:17:57;;;;;;;6.50;5.15;;;;;;;17.87;43.12;101894.38;3617448;39;20035;-78
2021/06/08 04:20:27;;;;;;;7.60;5.93;;;;;;;17.86;42.79;101889.03;3621531;39;20060;-78
2021/06/08 04:23:14;;;;;;;5.85;5.05;;;;;;;17.83;42.65;101886.56;3617099;39;20044;-78
2021/06/08 04:26:03;;;;;;;7.50;5.22;;;;;;;17.83;43.42;101890.22;3620906;39;20050;-78
2021/06/08 04:28:51;;;;;;;6.90;4.97;;;;;;;17.83;43.05;101886.56;3620849;39;20039;-78
2021/06/08 04:31:39;;;;;;;7.57;5.72;;;;;;;17.84;43.12;101889.19;3621179;39;20027;-78
2021/06/08 04:34:28;;;;;;;7.85;5.82;;;;;;;17.85;43.17;101895.59;3613135;39;20461;-78
2021/06/08 04:37:16;;;;;;;9.10;5.45;;;;;;;17.84;43.60;101891.09;3621670;39;20052;-78
2021/06/08 04:40:05;;;;;;;6.28;4.95;;;;;;;17.86;43.26;101900.09;3621187;39;20380;-78
2021/06/08 04:42:53;;;;;;;6.75;5.10;;;;;;;17.85;43.56;101892.81;3621159;39;20064;-78
2021/06/08 04:45:41;;;;;;;6.95;4.82;;;;;;;17.86;43.10;101895.44;3611108;39;20044;-77
2021/06/08 04:48:54;;;;;;;6.97;5.13;;;;;;;17.89;43.21;101888.72;3610742;39;20039;-79
2021/06/08 04:51:55;;;;;;;6.70;5.15;;;;;;;17.91;43.90;101894.97;3612818;39;20032;-79
2021/06/08 04:55:19;;;;;;;6.93;5.18;;;;;;;17.94;43.46;101894.66;3613808;39;20028;-79
2021/06/08 04:58:06;;;;;;;;;;;;;;;17.64;44.32;101888.41;3604471;39;20100;-78
2021/06/08 05:01:38;;;;;;;6.40;4.88;;;;;;;17.95;43.91;101891.72;3622306;39;20011;-79
2021/06/08 05:04:30;;;;;;;7.22;5.03;;;;;;;17.97;43.96;101892.44;3612819;39;20058;-78
2021/06/08 05:07:25;;;;;;;7.20;5.37;;;;;;;18.00;44.14;101886.59;3602882;39;20042;-78
2021/06/08 05:10:15;;;;;;;7.18;5.78;;;;;;;18.05;44.17;101886.16;3611522;39;20036;-78
2021/06/08 05:13:04;;;;;;;8.43;6.15;;;;;;;18.09;44.23;101895.91;3611273;39;20031;-78
2021/06/08 05:15:52;;;;;;;8.23;6.53;;;;;;;18.15;43.85;101888.84;3617569;39;20063;-78
2021/06/08 05:18:21;;;;;;;8.55;6.53;;;;;;;18.19;44.45;101893.06;3620736;39;20028;-79
2021/06/08 05:20:49;;;;;;;10.27;7.18;;;;;;;18.24;44.05;101894.31;3621612;39;20038;-78
2021/06/08 05:23:19;;;;;;;8.48;6.45;;;;;;;18.31;44.27;101903.75;3612051;39;20036;-79
2021/06/08 05:25:50;;;;;;;8.07;5.90;;;;;;;18.36;44.14;101895.81;3611952;39;20036;-80
2021/06/08 05:28:19;;;;;;;10.35;6.93;;;;;;;18.40;44.03;101896.38;3620923;39;20023;-79
2021/06/08 05:30:47;;;;;;;8.77;6.43;;;;;;;18.43;43.91;101896.94;3610796;39;20380;-80
2021/06/08 05:33:19;;;;;;;8.77;6.40;;;;;;;18.51;44.16;101907.22;3610073;39;20024;-79
2021/06/08 05:35:51;;;;;;;8.48;6.80;;;;;;;18.50;43.76;101905.50;3610158;39;20076;-79
2021/06/08 05:38:31;;;;;;;9.90;7.03;;;;;;;18.57;43.54;101902.94;3601678;39;20369;-78
2021/06/08 05:41:03;;;;;;;8.18;6.10;;;;;;;18.61;43.56;101905.22;3611078;39;20028;-78
2021/06/08 05:43:31;;;;;;;8.80;6.95;;;;;;;18.64;43.47;101904.03;3601382;39;20039;-78
2021/06/08 05:45:59;;;;;;;9.15;7.32;;;;;;;18.68;43.45;101909.13;3616166;39;20399;-79
2021/06/08 05:48:28;;;;;;;9.25;7.15;;;;;;;18.73;43.70;101914.16;3620786;39;20038;-80
2021/06/08 05:50:57;;;;;;;10.57;7.70;;;;;;;18.77;43.32;101912.84;3621129;39;20042;-80
2021/06/08 05:53:26;;;;;;;10.43;7.28;;;;;;;18.83;43.38;101914.13;3621076;39;20063;-79
2021/06/08 05:55:57;;;;;;;9.63;7.20;;;;;;;18.86;43.76;101908.22;3601955;39;20359;-81
2021/06/08 05:58:25;;;;;;;10.70;7.55;;;;;;;18.87;43.55;101905.31;3620676;39;20034;-79
2021/06/08 06:00:55;;;;;;;9.90;7.07;;;;;;;18.91;43.75;101906.72;3621597;39;20035;-78
2021/06/08 06:03:24;;;;;;;9.35;7.30;;;;;;;18.94;43.25;101909.16;3611474;39;20048;-74
2021/06/08 06:05:55;;;;;;;8.48;6.88;;;;;;;18.97;43.44;101911.63;3616406;39;20047;-72
2021/06/08 06:08:30;;;;;;;8.63;6.38;;;;;;;19.01;43.57;101915.84;3621262;39;20051;-73
2021/06/08 06:10:59;;;;;;;11.40;8.07;;;;;;;19.01;43.58;101913.06;3610555;39;20039;-74
2021/06/08 06:13:33;;;;;;;10.57;8.70;;;;;;;19.05;42.99;101913.59;3612730;39;20050;-73
2021/06/08 06:16:02;;;;;;;10.18;7.80;;;;;;;19.07;43.01;101911.53;3618358;39;20523;-72
2021/06/08 06:18:30;;;;;;;9.85;7.85;;;;;;;19.07;43.33;101917.94;3615623;39;20416;-72
2021/06/08 06:20:58;;;;;;;10.85;7.93;;;;;;;19.09;42.82;101909.47;3617692;39;20297;-72
2021/06/08 06:23:26;;;;;;;11.70;8.45;;;;;;;19.11;43.37;101915.69;3617891;39;20051;-72
2021/06/08 06:25:58;;;;;;;10.32;7.43;;;;;;;19.14;42.86;101915.38;3618741;39;20066;-72
2021/06/08 06:28:26;;;;;;;10.73;7.95;;;;;;;19.13;43.40;101922.84;3617593;39;20043;-73
2021/06/08 06:30:55;;;;;;;9.82;7.70;;;;;;;19.14;42.92;101916.25;3614431;39;20054;-72
2021/06/08 06:33:23;;;;;;;9.23;7.30;;;;;;;19.17;43.12;101923.38;3614898;39;20388;-72
2021/06/08 06:35:51;;;;;;;11.88;7.93;;;;;;;19.17;43.07;101917.84;3606034;39;20087;-72
2021/06/08 06:38:20;;;;;;;11.07;8.02;;;;;;;19.21;42.95;101927.56;3622521;39;20049;-72
2021/06/08 06:40:49;;;;;;;8.68;7.47;;;;;;;19.22;43.47;101917.34;3618698;39;20063;-72
2021/06/08 06:43:24;;;;;;;10.82;8.18;;;;;;;19.27;42.90;101920.47;3614522;39;20057;-70
2021/06/08 06:45:53;;;;;;;13.20;8.10;;;;;;;19.25;42.97;101917.03;3617528;39;20051;-71
2021/06/08 06:48:21;;;;;;;10.75;8.15;;;;;;;19.27;42.93;101920.47;3609517;39;20047;-70
2021/06/08 06:50:53;;;;;;;9.68;7.25;;;;;;;19.29;42.89;101927.63;3613695;39;20032;-71
2021/06/08 06:53:22;;;;;;;10.35;7.90;;;;;;;19.28;42.66;101919.44;3614564;39;20132;-71
2021/06/08 06:55:51;;;;;;;11.40;7.68;;;;;;;19.32;43.13;101923.66;3615634;39;20146;-71
2021/06/08 06:58:21;;;;;;;9.75;7.57;;;;;;;19.35;43.22;101926.09;3614042;39;21370;-72
2021/06/08 07:00:51;;;;;;;9.77;7.63;;;;;;;19.34;42.67;101925.25;3619966;39;20094;-70
2021/06/08 07:03:27;;;;;;;11.40;8.13;;;;;;;19.39;42.99;101930.28;3619095;39;20054;-71
2021/06/08 07:05:57;;;;;;;9.88;6.60;;;;;;;19.39;42.80;101921.97;3607147;39;20052;-71
2021/06/08 07:08:26;;;;;;;9.88;7.68;;;;;;;19.41;43.24;101931.88;3610255;39;20079;-72
2021/06/08 07:10:55;;;;;;;10.75;8.07;;;;;;;19.43;43.29;101929.78;3612675;39;20047;-71
2021/06/08 07:13:25;;;;;;;10.68;7.95;;;;;;;19.49;42.86;101939.38;3607921;39;20046;-70
2021/06/08 07:15:54;;;;;;;10.27;7.70;;;;;;;19.49;42.76;101931.91;3620221;39;20353;-71
2021/06/08 07:18:22;;;;;;;10.98;8.18;;;;;;;19.51;43.29;101931.78;3618431;39;20051;-72
2021/06/08 07:20:50;;;;;;;11.60;8.13;;;;;;;19.54;42.77;101932.31;3615289;39;20307;-74
2021/06/08 07:23:21;;;;;;;12.77;9.40;;;;;;;19.58;42.84;101931.97;3615180;39;20067;-73
2021/06/08 07:25:50;;;;;;;10.45;8.48;;;;;;;19.61;42.61;101934.41;3613505;39;20061;-73
2021/06/08 07:28:20;;;;;;;10.25;8.15;;;;;;;19.64;42.74;101934.97;3617800;39;20131;-73
2021/06/08 07:30:50;;;;;;;13.55;9.52;;;;;;;19.69;42.62;101934.44;3616927;39;20367;-73
2021/06/08 07:33:27;;;;;;;12.15;9.00;;;;;;;19.73;43.10;101935.88;3617999;39;20050;-73
2021/06/08 07:36:05;;;;;;;11.63;9.15;;;;;;;19.73;42.59;101933.09;3608268;39;20043;-73
2021/06/08 07:38:37;;;;;;;11.65;8.95;;;;;;;19.75;42.86;101940.22;3615580;39;20073;-73
2021/06/08 07:41:09;;;;;;;12.77;8.60;;;;;;;19.76;42.92;101939.16;3613467;39;20388;-72
2021/06/08 07:43:42;;;;;;;11.88;9.13;;;;;;;19.80;43.18;101939.72;3599960;39;20500;-73
2021/06/08 07:46:14;;;;;;;11.38;9.18;;;;;;;19.82;43.00;101940.44;3612946;39;20046;-73
2021/06/08 07:48:45;;;;;;;10.63;8.85;;;;;;;19.82;42.92;101945.97;3617798;39;20051;-72
2021/06/08 07:51:14;;;;;;;11.50;8.90;;;;;;;19.85;43.16;101940.94;3613442;39;20031;-74
2021/06/08 07:53:42;;;;;;;10.65;8.30;;;;;;;19.87;43.16;101947.22;3605811;39;20043;-75
2021/06/08 07:56:12;;;;;;;11.35;8.70;;;;;;;19.92;42.72;101941.16;3606242;39;20063;-75
2021/06/08 07:58:40;;;;;;;12.20;9.20;;;;;;;19.94;42.72;101939.94;3616360;39;20058;-75
2021/06/08 08:01:41;;;;;;;13.05;8.27;;;;;;;19.97;42.92;101951.75;3610960;39;20315;-74
2021/06/08 08:04:18;;;;;;;10.18;8.30;;;;;;;20.00;43.40;101948.66;3608834;39;20050;-73
2021/06/08 08:06:54;;;;;;;12.90;7.82;;;;;;;20.07;43.06;101947.81;3612695;39;20039;-72
2021/06/08 08:09:22;;;;;;;10.52;7.90;;;;;;;20.12;43.27;101947.28;3603114;39;20051;-73
2021/06/08 08:11:52;;;;;;;11.93;8.30;;;;;;;20.17;43.02;101948.53;3612529;39;20148;-73
2021/06/08 08:14:32;;;;;;;10.50;8.25;;;;;;;20.24;42.86;101949.66;3605706;39;20346;-73
2021/06/08 08:17:02;;;;;;;10.25;7.75;;;;;;;20.28;42.89;101947.38;3622339;39;20050;-72
2021/06/08 08:19:31;;;;;;;12.38;9.20;;;;;;;20.32;42.90;101946.00;3616133;39;20046;-72
2021/06/08 08:21:58;;;;;;;12.45;9.68;;;;;;;20.37;42.70;101943.56;3617530;39;20054;-74
2021/06/08 08:24:26;;;;;;;11.20;9.52;;;;;;;20.41;42.22;101945.00;3608354;39;20040;-74
2021/06/08 08:26:54;;;;;;;11.75;8.65;;;;;;;20.46;42.35;101942.56;3618147;39;20089;-73
2021/06/08 08:29:22;;;;;;;10.05;7.55;;;;;;;20.49;41.98;101947.78;3617402;39;20053;-72
2021/06/08 08:31:50;;;;;;;11.98;9.15;;;;;;;20.54;42.10;101944.47;3611651;39;20043;-74
2021/06/08 08:34:19;;;;;;;11.23;8.13;;;;;;;20.58;42.45;101941.16;3614321;39;20049;-73
2021/06/08 08:36:47;;;;;;;9.50;7.18;;;;;;;20.63;42.18;101935.97;3619259;39;20079;-73
2021/06/08 08:39:15;;;;;;;9.98;7.30;;;;;;;20.69;42.31;101938.06;3616601;39;20127;-73
2021/06/08 08:41:44;;;;;;;10.00;7.45;;;;;;;20.77;42.26;101939.97;3603623;39;20039;-74
2021/06/08 08:44:12;;;;;;;9.52;7.95;;;;;;;20.86;42.10;101938.94;3619323;39;20035;-74
2021/06/08 08:46:40;;;;;;;8.48;7.10;;;;;;;20.95;42.64;101939.84;3623591;39;20043;-74
2021/06/08 08:49:08;;;;;;;13.95;6.85;;;;;;;21.04;42.42;101936.00;3614187;39;20032;-73
2021/06/08 08:51:38;;;;;;;9.38;6.68;;;;;;;21.17;42.30;101927.97;3617915;39;20400;-72
2021/06/08 08:54:07;;;;;;;8.00;6.53;;;;;;;21.28;41.88;101926.75;3618068;39;20046;-73
2021/06/08 08:56:38;;;;;;;9.38;7.55;;;;;;;21.38;41.68;101927.44;3611945;39;20052;-70
2021/06/08 08:59:08;;;;;;;8.68;6.93;;;;;;;21.48;41.41;101924.44;3616888;39;20059;-71
2021/06/08 09:01:37;;;;;;;8.23;7.10;;;;;;;21.55;41.31;101925.47;3617292;39;20047;-71
2021/06/08 09:04:07;;;;;;;6.13;4.85;;;;;;;21.64;41.09;101927.22;3614969;39;20388;-71
2021/06/08 09:06:36;;;;;;;9.00;6.18;;;;;;;21.70;40.71;101920.91;3616614;39;20054;-74
2021/06/08 09:09:08;;;;;;;7.82;6.15;;;;;;;21.81;40.60;101926.97;3619381;39;20059;-73
2021/06/08 09:11:38;;;;;;;6.95;5.05;;;;;;;21.85;40.52;101913.53;3617667;39;20091;-72
2021/06/08 09:14:06;;;;;;;6.50;5.53;;;;;;;21.93;40.44;101913.50;3615275;39;20043;-71
2021/06/08 09:16:35;;;;;;;6.82;4.95;;;;;;;22.00;40.20;101914.50;3614874;39;20046;-71
2021/06/08 09:19:04;;;;;;;7.13;5.25;;;;;;;22.08;39.73;101919.16;3617658;39;20128;-71
2021/06/08 09:21:33;;;;;;;5.85;4.43;;;;;;;22.14;39.68;101908.16;3618700;39;20047;-72
2021/06/08 09:24:20;;;;;;;7.38;5.38;;;;;;;22.21;38.97;101908.31;3615394;39;20354;-73
2021/06/08 09:26:50;;;;;;;6.20;4.53;;;;;;;22.26;38.68;101911.41;3617608;39;20059;-73
2021/06/08 09:29:33;;;;;;;6.30;4.20;;;;;;;22.32;38.08;101904.22;3610345;39;20471;-72
2021/06/08 09:32:19;;;;;;;5.53;3.95;;;;;;;22.30;37.41;101904.44;3609901;39;20047;-72
2021/06/08 09:34:50;;;;;;;5.43;3.83;;;;;;;22.32;37.60;101902.31;3617142;39;20396;-72
2021/06/08 09:37:33;;;;;;;6.25;4.40;;;;;;;22.31;36.67;101900.59;3611013;39;20597;-74
2021/06/08 09:40:16;;;;;;;4.97;3.83;;;;;;;22.29;37.36;101905.50;3611860;39;20054;-72
2021/06/08 09:42:45;;;;;;;4.88;3.80;;;;;;;22.24;37.77;101899.59;3609441;39;20054;-73
2021/06/08 09:45:15;;;;;;;5.15;3.42;;;;;;;22.26;38.42;101900.28;3619305;39;20058;-72
2021/06/08 09:47:44;;;;;;;6.80;4.32;;;;;;;22.25;37.77;101895.75;3613600;39;20059;-72
2021/06/08 09:50:30;;;;;;;7.03;4.88;;;;;;;22.28;36.71;101900.97;3610303;39;20075;-72
2021/06/08 09:53:18;;;;;;;6.47;4.43;;;;;;;22.24;36.24;101898.72;3618843;39;20054;-72
2021/06/08 09:55:56;;;;;;;6.32;5.30;;;;;;;22.26;35.78;101888.25;3614285;39;20047;-72
2021/06/08 09:58:25;;;;;;;5.57;3.83;;;;;;;22.22;36.70;101898.91;3618750;39;20110;-74
2021/06/08 10:01:12;;;;;;;4.75;3.33;;;;;;;22.22;36.20;101900.84;3616441;39;20131;-72
2021/06/08 10:03:41;;;;;;;5.40;3.17;;;;;;;22.19;36.74;101890.88;3606877;39;20801;-72
2021/06/08 10:06:11;;;;;;;4.50;3.15;;;;;;;22.22;36.62;101896.13;3618689;39;20059;-72
2021/06/08 10:08:55;;;;;;;4.57;3.22;;;;;;;22.26;36.47;101891.03;3619351;39;20047;-72
2021/06/08 10:15:03;;;;;;;4.78;3.42;;;;;;;22.29;36.87;101883.19;3609452;39;20417;-72
2021/06/08 10:17:32;;;;;;;5.00;3.55;;;;;;;22.32;37.22;101885.59;3622476;39;20135;-73
2021/06/08 10:20:17;;;;;;;5.88;3.63;;;;;;;22.37;36.34;101885.91;3623703;39;20038;-73
2021/06/08 10:22:45;;;;;;;3.95;2.88;;;;;;;22.38;37.02;101886.78;3618346;39;20058;-72
2021/06/08 10:25:14;;;;;;;5.85;3.72;;;;;;;22.40;36.42;101877.16;3618876;39;20049;-73
2021/06/08 10:27:42;;;;;;;5.28;4.18;;;;;;;22.42;36.01;101872.28;3617712;39;20051;-72
2021/06/08 10:30:12;;;;;;;6.07;4.18;;;;;;;22.46;35.62;101876.44;3618005;39;20040;-73
2021/06/08 10:32:40;;;;;;;7.25;4.70;;;;;;;22.44;35.51;101878.53;3616384;39;20051;-72
2021/06/08 10:35:11;;;;;;;7.60;4.57;;;;;;;22.44;35.55;101877.66;3618686;39;20096;-72
2021/06/08 10:37:39;;;;;;;6.30;4.20;;;;;;;22.39;35.74;101877.38;3618196;39;20087;-72
2021/06/08 10:40:08;;;;;;;5.63;4.22;;;;;;;22.40;35.57;101876.28;3618159;39;20043;-72
2021/06/08 10:42:36;;;;;;;6.13;4.57;;;;;;;22.40;35.33;101873.50;3618535;39;20054;-72
2021/06/08 10:45:07;;;;;;;7.30;4.25;;;;;;;22.43;35.98;101876.81;3612448;39;20087;-72
2021/06/08 10:47:43;;;;;;;5.70;4.05;;;;;;;22.44;35.63;101872.97;3612753;39;20059;-72
2021/06/08 10:50:29;;;;;;;6.38;4.95;;;;;;;22.43;35.03;101875.94;3611605;39;20047;-70
2021/06/08 10:52:58;;;;;;;5.25;4.32;;;;;;;22.40;35.56;101879.09;3614668;39;20293;-71
2021/06/08 10:55:29;;;;;;;5.82;4.75;;;;;;;22.44;35.52;101880.47;3618128;39;20292;-71
2021/06/08 10:57:57;;;;;;;5.85;4.82;;;;;;;22.41;35.59;101878.03;3618170;39;20399;-71
2021/06/08 11:00:52;;;;;;;5.85;4.10;;;;;;;22.39;35.42;101881.03;3616268;39;20135;-71
2021/06/08 11:03:54;;;;;;;4.95;4.30;;;;;;;22.38;35.45;101876.50;3610204;39;20051;-71
2021/06/08 11:06:46;;;;;;;6.25;4.93;;;;;;;22.37;35.54;101885.03;3611600;39;20055;-70
2021/06/08 11:09:15;;;;;;;7.13;5.25;;;;;;;22.38;35.40;101884.00;3614334;39;20062;-73
2021/06/08 11:11:46;;;;;;;5.68;4.88;;;;;;;22.42;35.53;101875.06;3616719;39;20047;-73
2021/06/08 11:15:00;;;;;;;5.95;5.30;;;;;;;22.43;34.76;101878.72;3618023;39;20039;-74
2021/06/08 11:17:42;;;;;;;6.25;4.32;;;;;;;22.44;35.32;101883.25;3594467;39;20135;-72
2021/06/08 11:20:22;;;;;;;6.35;5.10;;;;;;;22.46;35.35;101878.38;3616346;39;20055;-71
2021/06/08 11:22:56;;;;;;;5.90;4.70;;;;;;;22.48;35.19;101876.22;3616472;39;20307;-74
2021/06/08 11:25:41;;;;;;;5.35;4.13;;;;;;;22.51;35.79;101879.53;3617752;39;20047;-72
2021/06/08 11:28:11;;;;;;;6.45;5.70;;;;;;;22.54;35.61;101884.75;3614740;39;20070;-72
2021/06/08 11:30:44;;;;;;;7.82;5.18;;;;;;;22.60;35.43;101880.31;3609515;39;20098;-72
2021/06/08 11:33:32;;;;;;;5.95;5.00;;;;;;;22.62;35.19;101878.22;3617277;39;20039;-75
2021/06/08 11:36:03;;;;;;;6.20;5.32;;;;;;;22.65;35.17;101880.63;3616577;39;20309;-72
2021/06/08 11:38:34;;;;;;;7.03;5.90;;;;;;;22.67;34.90;101881.31;3614708;39;20055;-72
2021/06/08 11:41:08;;;;;;;7.43;6.22;;;;;;;22.67;34.63;101878.53;3614795;39;20051;-70
2021/06/08 11:43:54;;;;;;;7.32;6.15;;;;;;;22.70;34.86;101883.72;3617247;39;20087;-70
2021/06/08 11:46:45;;;;;;;7.68;6.45;;;;;;;22.71;34.34;101879.03;3616132;39;20039;-70
2021/06/08 11:49:17;;;;;;;7.57;6.65;;;;;;;22.68;34.80;101877.47;3614475;39;20345;-71
2021/06/08 11:52:05;;;;;;;7.45;6.75;;;;;;;22.67;34.27;101872.94;3615384;39;20038;-72
2021/06/08 11:54:47;;;;;;;6.70;5.93;;;;;;;22.69;34.18;101875.53;3614512;39;20177;-71